Back to Top

Language: 

My Weather Underground Personal Weather Station Historical Data with Graphs...

Delerius Weather Station Historical Data
Daily Summary for March 21, 2017 Units:  Metric    English   Both
« Previous Day
Next Day »
Daily Weekly Monthly Yearly Custom
  High: Low: Average:
Temperature: 9.7 °C 2.3 °C 5.7 °C
Dew Point: 3.1 °C -2.2 °C 0.7 °C
Humidity: 90 % 44 % 72 %
Wind Speed: 33.8 km/h 3.2 km/h 20.4 km/h
Wind Gust: 56.3 km/h - -
Wind:- - WSW
Pressure: 1006 hPa 999.5 hPa -
Precipitation: 1.02 mm    
Historical Graphs
 
 
Tabular Data for March 21, 2017
Time Temperature Dew Point Pressure Wind Wind Speed Wind Gust Humidity Rainfall Rate (Hourly) solar Conditions
00:02 4.2 °C 2.4 °C 999.9 hPa WSW 17.7 km/h 33.8 km/h 88 % 0.51 mm 0 W/m2
00:07 4.1 °C 2.4 °C 999.9 hPa WSW 17.7 km/h 33.8 km/h 89 % 0.51 mm 0 W/m2
00:12 4.1 °C 2.4 °C 999.5 hPa WSW 17.7 km/h 33.8 km/h 89 % 0.51 mm 0 W/m2
00:17 4.1 °C 2.4 °C 999.5 hPa WSW 17.7 km/h 30.6 km/h 89 % 0.51 mm 0 W/m2
00:22 4.2 °C 2.6 °C 999.5 hPa WSW 19.3 km/h 37 km/h 89 % 0.51 mm 0 W/m2
00:27 4.3 °C 2.5 °C 999.5 hPa WSW 20.9 km/h 37 km/h 88 % 0.51 mm 0 W/m2
00:33 4.3 °C 2.5 °C 999.9 hPa WSW 20.9 km/h 33.8 km/h 88 % 0.25 mm 0 W/m2
00:38 4.4 °C 2.6 °C 999.5 hPa WSW 19.3 km/h 33.8 km/h 88 % 0 mm 0 W/m2
00:43 4.5 °C 2.7 °C 999.9 hPa WSW 19.3 km/h 41.8 km/h 88 % 0 mm 0 W/m2
00:48 4.6 °C 2.6 °C 999.9 hPa WSW 22.5 km/h 41.8 km/h 87 % 0 mm 0 W/m2
00:53 4.6 °C 2.4 °C 999.9 hPa WSW 22.5 km/h 40.2 km/h 86 % 0 mm 0 W/m2
00:58 4.6 °C 2.4 °C 999.9 hPa WSW 20.9 km/h 40.2 km/h 86 % 0 mm 0 W/m2
01:03 4.6 °C 2.4 °C 999.9 hPa West 20.9 km/h 38.6 km/h 86 % 0 mm 0 W/m2
01:08 4.6 °C 2.3 °C 999.9 hPa WSW 22.5 km/h 38.6 km/h 85 % 0 mm 0 W/m2
01:13 4.7 °C 2.4 °C 999.9 hPa West 22.5 km/h 35.4 km/h 85 % 0 mm 0 W/m2
01:18 4.7 °C 2.4 °C 999.9 hPa West 24.1 km/h 45.1 km/h 85 % 0 mm 0 W/m2
01:23 4.8 °C 2.5 °C 1000.2 hPa West 27.4 km/h 48.3 km/h 85 % 0 mm 0 W/m2
01:28 4.7 °C 2.7 °C 1000.2 hPa West 24.1 km/h 48.3 km/h 87 % 0.25 mm 0 W/m2
01:33 4.4 °C 2.6 °C 1000.2 hPa WNW 22.5 km/h 41.8 km/h 88 % 0.25 mm 0 W/m2
01:38 4.2 °C 2.4 °C 1000.2 hPa West 20.9 km/h 41.8 km/h 88 % 0.25 mm 0 W/m2
01:43 4.2 °C 2.4 °C 999.9 hPa West 22.5 km/h 40.2 km/h 88 % 0.25 mm 0 W/m2
01:48 4.2 °C 2.4 °C 1000.2 hPa West 24.1 km/h 48.3 km/h 88 % 0.25 mm 0 W/m2
01:53 4.2 °C 2.2 °C 1000.2 hPa West 24.1 km/h 48.3 km/h 87 % 0.25 mm 0 W/m2
01:58 4.2 °C 2.2 °C 1000.2 hPa West 22.5 km/h 41.8 km/h 87 % 0.25 mm 0 W/m2
02:03 4.2 °C 2.4 °C 1000.6 hPa West 19.3 km/h 35.4 km/h 88 % 0.25 mm 0 W/m2
02:08 4.1 °C 2.4 °C 1000.6 hPa WNW 20.9 km/h 41.8 km/h 89 % 0.51 mm 0 W/m2
02:13 3.9 °C 2.3 °C 1000.6 hPa WNW 25.7 km/h 46.7 km/h 89 % 0.51 mm 0 W/m2
02:18 3.8 °C 2.3 °C 1000.6 hPa West 22.5 km/h 46.7 km/h 90 % 0.51 mm 0 W/m2
02:23 3.8 °C 2.3 °C 1000.6 hPa West 19.3 km/h 35.4 km/h 90 % 0.51 mm 0 W/m2
02:28 3.9 °C 2.3 °C 1000.6 hPa West 20.9 km/h 37 km/h 89 % 0.51 mm 0 W/m2
02:33 4 °C 2.2 °C 1000.6 hPa West 22.5 km/h 41.8 km/h 88 % 0.51 mm 0 W/m2
02:38 4 °C 2.2 °C 1000.6 hPa West 22.5 km/h 41.8 km/h 88 % 0.51 mm 0 W/m2
02:43 3.9 °C 1.9 °C 1000.6 hPa West 22.5 km/h 41.8 km/h 87 % 0.51 mm 0 W/m2
02:48 4 °C 1.9 °C 1000.6 hPa West 24.1 km/h 41.8 km/h 86 % 0.51 mm 0 W/m2
02:53 4.1 °C 1.9 °C 1000.6 hPa West 25.7 km/h 41.8 km/h 86 % 0.51 mm 0 W/m2
02:58 4.1 °C 1.8 °C 1000.6 hPa West 22.5 km/h 41.8 km/h 85 % 0.51 mm 0 W/m2
03:03 4 °C 1.7 °C 1000.9 hPa West 24.1 km/h 38.6 km/h 85 % 0.51 mm 0 W/m2
03:08 4 °C 1.6 °C 1000.6 hPa West 25.7 km/h 40.2 km/h 84 % 0.25 mm 0 W/m2
03:13 3.9 °C 1.4 °C 1000.9 hPa West 24.1 km/h 40.2 km/h 84 % 0 mm 0 W/m2
03:18 3.9 °C 1.3 °C 1000.9 hPa West 24.1 km/h 43.5 km/h 83 % 0 mm 0 W/m2
03:23 3.9 °C 1.1 °C 1000.9 hPa West 25.7 km/h 45.1 km/h 82 % 0 mm 0 W/m2
03:28 3.9 °C 1.1 °C 1001.2 hPa West 24.1 km/h 45.1 km/h 82 % 0 mm 0 W/m2
03:33 3.9 °C 1.3 °C 1001.2 hPa West 22.5 km/h 37 km/h 83 % 0 mm 0 W/m2
03:38 3.8 °C 1.2 °C 1001.2 hPa West 24.1 km/h 41.8 km/h 83 % 0 mm 0 W/m2
03:43 3.7 °C 1.2 °C 1001.2 hPa West 22.5 km/h 41.8 km/h 84 % 0 mm 0 W/m2
03:48 3.4 °C 1.1 °C 1001.2 hPa West 17.7 km/h 30.6 km/h 85 % 0 mm 0 W/m2
03:53 3.3 °C 1 °C 1001.2 hPa West 16.1 km/h 30.6 km/h 85 % 0 mm 0 W/m2
03:58 3.3 °C 1 °C 1001.2 hPa West 16.1 km/h 30.6 km/h 85 % 0 mm 0 W/m2
04:03 3.2 °C 0.9 °C 1001.2 hPa West 16.1 km/h 33.8 km/h 85 % 0 mm 0 W/m2
04:08 3.2 °C 0.9 °C 1001.2 hPa West 16.1 km/h 33.8 km/h 85 % 0 mm 0 W/m2
04:13 3.3 °C 1 °C 1001.6 hPa West 17.7 km/h 33.8 km/h 85 % 0 mm 0 W/m2
04:18 3.3 °C 0.8 °C 1001.6 hPa West 17.7 km/h 33.8 km/h 84 % 0 mm 0 W/m2
04:23 3.3 °C 0.8 °C 1001.6 hPa West 20.9 km/h 46.7 km/h 84 % 0 mm 0 W/m2
04:28 3.4 °C 0.9 °C 1001.6 hPa WSW 25.7 km/h 46.7 km/h 84 % 0 mm 0 W/m2
04:33 3.3 °C 1 °C 1001.6 hPa WSW 25.7 km/h 43.5 km/h 85 % 0 mm 0 W/m2
04:38 3.1 °C 0.8 °C 1001.6 hPa WSW 22.5 km/h 38.6 km/h 85 % 0 mm 0 W/m2
04:43 3.2 °C 0.9 °C 1001.9 hPa WSW 24.1 km/h 40.2 km/h 85 % 0 mm 0 W/m2
04:48 3.2 °C 0.6 °C 1001.9 hPa WSW 24.1 km/h 40.2 km/h 83 % 0 mm 0 W/m2
04:53 3.2 °C 0.6 °C 1001.9 hPa WSW 20.9 km/h 35.4 km/h 83 % 0 mm 0 W/m2
04:58 3.2 °C 0.4 °C 1001.9 hPa WSW 22.5 km/h 38.6 km/h 82 % 0 mm 0 W/m2
05:03 3.2 °C 0.4 °C 1001.9 hPa WSW 22.5 km/h 38.6 km/h 82 % 0 mm 0 W/m2
05:08 3.2 °C 0.4 °C 1002.3 hPa WSW 20.9 km/h 38.6 km/h 82 % 0 mm 0 W/m2
05:13 3.2 °C 0.6 °C 1002.3 hPa WSW 24.1 km/h 41.8 km/h 83 % 0 mm 0 W/m2
05:18 3 °C 0.6 °C 1002.3 hPa WSW 22.5 km/h 41.8 km/h 84 % 0 mm 0 W/m2
05:23 2.8 °C 0.4 °C 1002.3 hPa WSW 20.9 km/h 35.4 km/h 84 % 0 mm 0 W/m2
05:28 2.9 °C 0.3 °C 1002.3 hPa WSW 20.9 km/h 37 km/h 83 % 0 mm 0 W/m2
05:33 3 °C 0.2 °C 1002.3 hPa WSW 24.1 km/h 37 km/h 82 % 0 mm 0 W/m2
05:34 3 °C 0.2 °C 1002.3 hPa WSW 24.1 km/h 37 km/h 82 % 0 mm 0 W/m2
05:39 3 °C 0.2 °C 1002.3 hPa WSW 22.5 km/h 33.8 km/h 82 % 0 mm 0 W/m2
05:44 2.9 °C 0.1 °C 1002.3 hPa WSW 19.3 km/h 33.8 km/h 82 % 0 mm 0 W/m2
05:49 2.9 °C 0.1 °C 1002.3 hPa WSW 19.3 km/h 33.8 km/h 82 % 0 mm 0 W/m2
05:54 3 °C 0.1 °C 1002.6 hPa WSW 22.5 km/h 35.4 km/h 81 % 0 mm 0 W/m2
05:59 3 °C 0.2 °C 1002.6 hPa WSW 27.4 km/h 40.2 km/h 82 % 0 mm 0 W/m2
06:04 2.8 °C 0.2 °C 1002.6 hPa WSW 27.4 km/h 40.2 km/h 83 % 0 mm 7 W/m2
06:09 2.6 °C 0.3 °C 1002.9 hPa WSW 24.1 km/h 38.6 km/h 85 % 0 mm 5 W/m2
06:14 2.5 °C 0.4 °C 1002.6 hPa WSW 20.9 km/h 38.6 km/h 86 % 0 mm 7 W/m2
06:19 2.4 °C 0.3 °C 1002.6 hPa WSW 19.3 km/h 37 km/h 86 % 0 mm 7 W/m2
06:24 2.4 °C 0.3 °C 1002.9 hPa WSW 17.7 km/h 37 km/h 86 % 0.25 mm 11 W/m2
06:29 2.3 °C 0.2 °C 1002.6 hPa WSW 16.1 km/h 25.7 km/h 86 % 0.25 mm 14 W/m2
06:34 2.4 °C 0.3 °C 1002.9 hPa WSW 17.7 km/h 33.8 km/h 86 % 0.25 mm 16 W/m2
06:39 2.5 °C 0.1 °C 1002.9 hPa WSW 17.7 km/h 33.8 km/h 84 % 0.25 mm 21 W/m2
06:44 2.7 °C 0.1 °C 1002.9 hPa WSW 20.9 km/h 35.4 km/h 83 % 0.25 mm 25 W/m2
06:49 2.8 °C 0.1 °C 1002.9 hPa WSW 20.9 km/h 35.4 km/h 82 % 0.25 mm 26 W/m2
06:54 2.8 °C -0.3 °C 1002.9 hPa WSW 20.9 km/h 33.8 km/h 80 % 0.25 mm 28 W/m2
06:59 3 °C -0.3 °C 1002.9 hPa WSW 22.5 km/h 37 km/h 79 % 0.25 mm 32 W/m2
07:04 3.1 °C -0.4 °C 1002.9 hPa WSW 24.1 km/h 37 km/h 78 % 0.25 mm 104 W/m2
07:09 3.3 °C -0.2 °C 1002.9 hPa WSW 24.1 km/h 41.8 km/h 78 % 0.25 mm 118 W/m2
07:14 3.4 °C -0.1 °C 1002.9 hPa WSW 24.1 km/h 41.8 km/h 78 % 0.25 mm 132 W/m2
07:19 3.6 °C -0.1 °C 1003.3 hPa WSW 24.1 km/h 40.2 km/h 77 % 0.25 mm 148 W/m2
07:24 3.7 °C 0.1 °C 1003.3 hPa WSW 24.1 km/h 41.8 km/h 77 % 0 mm 165 W/m2
07:29 3.7 °C 0.1 °C 1003.3 hPa WSW 24.1 km/h 43.5 km/h 77 % 0 mm 176 W/m2
07:34 3.8 °C -0.1 °C 1002.9 hPa WSW 25.7 km/h 43.5 km/h 76 % 0 mm 192 W/m2
07:39 3.9 °C 0.2 °C 1003.3 hPa WSW 25.7 km/h 38.6 km/h 77 % 0 mm 206 W/m2
07:44 4 °C 0.3 °C 1003.3 hPa WSW 22.5 km/h 38.6 km/h 77 % 0 mm 216 W/m2
07:49 4.1 °C 0.4 °C 1003.3 hPa WSW 22.5 km/h 45.1 km/h 77 % 0 mm 232 W/m2
07:54 4.2 °C 0.5 °C 1003.6 hPa West 24.1 km/h 45.1 km/h 77 % 0 mm 243 W/m2
07:59 4.3 °C 0.6 °C 1003.6 hPa West 22.5 km/h 45.1 km/h 77 % 0 mm 258 W/m2
08:04 4.4 °C 0.7 °C 1003.6 hPa West 20.9 km/h 41.8 km/h 77 % 0 mm 272 W/m2
08:09 4.5 °C 0.6 °C 1003.6 hPa West 24.1 km/h 45.1 km/h 76 % 0 mm 288 W/m2
08:14 4.6 °C 0.6 °C 1003.6 hPa WSW 25.7 km/h 45.1 km/h 75 % 0 mm 301 W/m2
08:19 4.6 °C 0.6 °C 1003.6 hPa WSW 27.4 km/h 41.8 km/h 75 % 0 mm 315 W/m2
08:25 4.7 °C 0.4 °C 1003.6 hPa WSW 27.4 km/h 46.7 km/h 74 % 0 mm 329 W/m2
08:30 4.8 °C 0.4 °C 1003.6 hPa WSW 27.4 km/h 46.7 km/h 73 % 0 mm 343 W/m2
08:35 4.9 °C 0.4 °C 1003.6 hPa WSW 24.1 km/h 45.1 km/h 73 % 0 mm 355 W/m2
08:40 5 °C 0.6 °C 1003.6 hPa WSW 24.1 km/h 41.8 km/h 73 % 0 mm 369 W/m2
08:45 5 °C 0.4 °C 1003.6 hPa WSW 29 km/h 46.7 km/h 72 % 0 mm 383 W/m2
08:50 5.1 °C 0.3 °C 1003.6 hPa WSW 30.6 km/h 46.7 km/h 71 % 0 mm 394 W/m2
08:55 5.2 °C 0.2 °C 1003.6 hPa WSW 29 km/h 49.9 km/h 70 % 0 mm 406 W/m2
09:00 5.3 °C 0.1 °C 1003.6 hPa WSW 29 km/h 49.9 km/h 69 % 0 mm 422 W/m2
09:05 5.5 °C 0.4 °C 1003.9 hPa WSW 27.4 km/h 48.3 km/h 70 % 0 mm 434 W/m2
09:10 5.7 °C 0.4 °C 1003.9 hPa WSW 25.7 km/h 43.5 km/h 69 % 0 mm 443 W/m2
09:15 5.6 °C 0.2 °C 1003.9 hPa WSW 30.6 km/h 51.5 km/h 68 % 0 mm 459 W/m2
09:20 5.8 °C 0.3 °C 1003.9 hPa WSW 30.6 km/h 51.5 km/h 68 % 0 mm 469 W/m2
09:25 5.9 °C 0 °C 1003.9 hPa WSW 29 km/h 49.9 km/h 66 % 0 mm 475 W/m2
09:30 5.9 °C 0 °C 1003.9 hPa West 33.8 km/h 49.9 km/h 66 % 0 mm 490 W/m2
09:35 6 °C -0.1 °C 1003.9 hPa West 32.2 km/h 48.3 km/h 65 % 0 mm 496 W/m2
09:40 6.1 °C -0.2 °C 1003.9 hPa West 32.2 km/h 48.3 km/h 64 % 0 mm 508 W/m2
09:45 6.3 °C 0 °C 1004.3 hPa West 30.6 km/h 51.5 km/h 64 % 0 mm 522 W/m2
09:55 6.4 °C -0.6 °C 1004.3 hPa WSW 33.8 km/h 51.5 km/h 61 % 0 mm 538 W/m2
10:00 6.5 °C -0.3 °C 1004.3 hPa West 30.6 km/h 51.5 km/h 62 % 0 mm 555 W/m2
10:05 6.7 °C -0.1 °C 1004.3 hPa West 29 km/h 46.7 km/h 62 % 0 mm 552 W/m2
10:10 6.8 °C -0.4 °C 1004.3 hPa West 27.4 km/h 45.1 km/h 60 % 0 mm 563 W/m2
10:15 7 °C 0 °C 1004.3 hPa West 27.4 km/h 45.1 km/h 61 % 0 mm 589 W/m2
10:20 7 °C 0 °C 1004.3 hPa West 27.4 km/h 46.7 km/h 61 % 0 mm 547 W/m2
10:25 6.9 °C 0.1 °C 1004.3 hPa West 29 km/h 46.7 km/h 62 % 0 mm 592 W/m2
10:30 6.9 °C 0.3 °C 1004.3 hPa West 27.4 km/h 40.2 km/h 63 % 0 mm 606 W/m2
10:35 7.1 °C 0.5 °C 1004.3 hPa West 24.1 km/h 40.2 km/h 63 % 0 mm 613 W/m2
10:40 7.3 °C 0.5 °C 1004.3 hPa West 22.5 km/h 43.5 km/h 62 % 0 mm 455 W/m2
10:45 7.3 °C 0.3 °C 1004.3 hPa WSW 24.1 km/h 43.5 km/h 61 % 0 mm 283 W/m2
10:50 6.8 °C 0.4 °C 1004.3 hPa West 25.7 km/h 41.8 km/h 64 % 0 mm 118 W/m2
10:55 6.8 °C 0.4 °C 1004.3 hPa WSW 24.1 km/h 41.8 km/h 64 % 0 mm 703 W/m2
11:00 7.4 °C 0.8 °C 1004.6 hPa WSW 24.1 km/h 51.5 km/h 63 % 0 mm 707 W/m2
11:05 7.8 °C -0.4 °C 1004.3 hPa WSW 27.4 km/h 51.5 km/h 56 % 0 mm 677 W/m2
11:10 8.1 °C -0.4 °C 1004.3 hPa WSW 30.6 km/h 49.9 km/h 55 % 0 mm 664 W/m2
11:15 8.1 °C -0.9 °C 1004.6 hPa WSW 30.6 km/h 48.3 km/h 53 % 0 mm 680 W/m2
11:20 8 °C -0.8 °C 1004.3 hPa WSW 30.6 km/h 48.3 km/h 54 % 0 mm 661 W/m2
11:25 7.9 °C -1.1 °C 1004.6 hPa WSW 32.2 km/h 51.5 km/h 53 % 0 mm 657 W/m2
11:30 7.9 °C -0.8 °C 1004.6 hPa WSW 32.2 km/h 56.3 km/h 54 % 0 mm 675 W/m2
11:35 8.2 °C 0.2 °C 1004.6 hPa WSW 25.7 km/h 56.3 km/h 57 % 0 mm 703 W/m2
11:40 8.5 °C -0.3 °C 1004.6 hPa WSW 24.1 km/h 40.2 km/h 54 % 0 mm 710 W/m2
11:45 8.6 °C 0.3 °C 1004.6 hPa WSW 25.7 km/h 45.1 km/h 56 % 0 mm 694 W/m2
11:50 8.8 °C 0.5 °C 1004.6 hPa WSW 25.7 km/h 49.9 km/h 56 % 0 mm 710 W/m2
11:55 8.8 °C -0.3 °C 1004.6 hPa WSW 25.7 km/h 49.9 km/h 53 % 0 mm 684 W/m2
12:00 8.8 °C -0.8 °C 1004.6 hPa WSW 29 km/h 46.7 km/h 51 % 0 mm 682 W/m2
12:05 8.8 °C -1.1 °C 1004.6 hPa WSW 30.6 km/h 53.1 km/h 50 % 0 mm 682 W/m2
12:06 8.8 °C -1.1 °C 1004.6 hPa WSW 30.6 km/h 53.1 km/h 50 % 0 mm 687 W/m2
12:11 8.7 °C -0.9 °C 1004.6 hPa WSW 30.6 km/h 53.1 km/h 51 % 0 mm 696 W/m2
12:16 8.6 °C -0.2 °C 1005 hPa WSW 32.2 km/h 54.7 km/h 54 % 0 mm 693 W/m2
12:21 8.7 °C -0.6 °C 1004.6 hPa WSW 32.2 km/h 54.7 km/h 52 % 0 mm 691 W/m2
12:26 8.8 °C -1.1 °C 1005 hPa WSW 30.6 km/h 51.5 km/h 50 % 0 mm 729 W/m2
12:31 9 °C -1.2 °C 1005 hPa WSW 29 km/h 49.9 km/h 49 % 0 mm 749 W/m2
12:36 9.3 °C -1.2 °C 1005 hPa WSW 27.4 km/h 49.9 km/h 48 % 0 mm 693 W/m2
12:41 9.2 °C -1.3 °C 1005 hPa WSW 27.4 km/h 51.5 km/h 48 % 0 mm 744 W/m2
12:44 9 °C -1.2 °C 1005 hPa WSW 32.2 km/h 51.5 km/h 49 % 0 mm 715 W/m2
12:49 9 °C -0.6 °C 1005 hPa WSW 30.6 km/h 48.3 km/h 51 % 0 mm 728 W/m2
12:54 9.4 °C 0 °C 1005 hPa WSW 24.1 km/h 46.7 km/h 52 % 0 mm 686 W/m2
12:59 9.7 °C 0.1 °C 1005 hPa West 19.3 km/h 35.4 km/h 51 % 0 mm 675 W/m2
13:04 9.7 °C -0.8 °C 1005 hPa WSW 24.1 km/h 49.9 km/h 48 % 0 mm 693 W/m2
13:09 9.6 °C -0.9 °C 1005 hPa WSW 27.4 km/h 49.9 km/h 48 % 0 mm 693 W/m2
13:14 9.3 °C -1.2 °C 1005 hPa WSW 27.4 km/h 49.9 km/h 48 % 0 mm 621 W/m2
13:19 9.2 °C -1 °C 1005 hPa WSW 27.4 km/h 49.9 km/h 49 % 0 mm 185 W/m2
13:21 9.2 °C -0.7 °C 1005 hPa WSW 27.4 km/h 49.9 km/h 50 % 0 mm 659 W/m2
13:26 9.3 °C -0.6 °C 1005 hPa West 25.7 km/h 41.8 km/h 50 % 0 mm 650 W/m2
13:31 9.5 °C -1 °C 1005 hPa WSW 27.4 km/h 41.8 km/h 48 % 0 mm 659 W/m2
13:36 9.6 °C -1.2 °C 1005 hPa WSW 27.4 km/h 49.9 km/h 47 % 0 mm 668 W/m2
13:41 9.2 °C -1.6 °C 1005 hPa WSW 27.4 km/h 49.9 km/h 47 % 0 mm 304 W/m2
13:46 9.1 °C -1.1 °C 1005 hPa WSW 25.7 km/h 41.8 km/h 49 % 0 mm 612 W/m2
13:51 9.1 °C -1.6 °C 1005.3 hPa WSW 25.7 km/h 46.7 km/h 47 % 0 mm 592 W/m2
13:56 9.2 °C -1.3 °C 1005.3 hPa WSW 24.1 km/h 46.7 km/h 48 % 0 mm 580 W/m2
14:01 9.3 °C -1.7 °C 1005 hPa WSW 24.1 km/h 43.5 km/h 46 % 0 mm 471 W/m2
14:06 9.5 °C -1.6 °C 1005.3 hPa WSW 24.1 km/h 43.5 km/h 46 % 0 mm 615 W/m2
14:11 9.6 °C -1.8 °C 1005 hPa West 24.1 km/h 45.1 km/h 45 % 0 mm 578 W/m2
14:12 9.6 °C -1.8 °C 1005 hPa West 22.5 km/h 45.1 km/h 45 % 0 mm 578 W/m2
14:17 9.7 °C -2 °C 1005.3 hPa WSW 25.7 km/h 53.1 km/h 44 % 0 mm 536 W/m2
14:22 9.5 °C -2.2 °C 1005 hPa WSW 30.6 km/h 53.1 km/h 44 % 0 mm 570 W/m2
14:27 9.4 °C -1.9 °C 1005 hPa WSW 30.6 km/h 48.3 km/h 45 % 0 mm 536 W/m2
14:32 9.5 °C -1.8 °C 1005 hPa WSW 29 km/h 46.7 km/h 45 % 0 mm 557 W/m2
14:37 9.6 °C -1.4 °C 1005 hPa West 27.4 km/h 40.2 km/h 46 % 0 mm 520 W/m2
14:42 9.6 °C -1.2 °C 1005 hPa WSW 25.7 km/h 43.5 km/h 47 % 0 mm 527 W/m2
14:47 9.6 °C -1.2 °C 1005 hPa WSW 24.1 km/h 43.5 km/h 47 % 0 mm 515 W/m2
14:52 9.4 °C -1.3 °C 1005 hPa WSW 22.5 km/h 35.4 km/h 47 % 0 mm 105 W/m2
14:57 8.9 °C -1.8 °C 1005 hPa WSW 22.5 km/h 41.8 km/h 47 % 0 mm 113 W/m2
15:02 8.6 °C -2.1 °C 1005 hPa WSW 24.1 km/h 41.8 km/h 47 % 0 mm 132 W/m2
15:07 8.4 °C -1.7 °C 1005 hPa WSW 20.9 km/h 37 km/h 49 % 0 mm 132 W/m2
15:12 8.3 °C -2.1 °C 1005 hPa WSW 22.5 km/h 37 km/h 48 % 0 mm 151 W/m2
15:17 8.2 °C -1.9 °C 1005 hPa WSW 22.5 km/h 37 km/h 49 % 0 mm 165 W/m2
15:22 8.3 °C -2.1 °C 1005 hPa WSW 20.9 km/h 38.6 km/h 48 % 0 mm 185 W/m2
15:27 8.3 °C -2.1 °C 1005 hPa WSW 22.5 km/h 38.6 km/h 48 % 0 mm 197 W/m2
15:32 8.3 °C -1.8 °C 1005 hPa WSW 20.9 km/h 35.4 km/h 49 % 0 mm 218 W/m2
15:37 8.4 °C -1.4 °C 1005 hPa WSW 20.9 km/h 38.6 km/h 50 % 0 mm 214 W/m2
15:42 8.4 °C -1.2 °C 1005 hPa WSW 22.5 km/h 38.6 km/h 51 % 0 mm 192 W/m2
15:52 8.3 °C -1 °C 1005 hPa WSW 20.9 km/h 38.6 km/h 52 % 0 mm 188 W/m2
15:57 8.3 °C -0.7 °C 1005 hPa WSW 20.9 km/h 38.6 km/h 53 % 0 mm 176 W/m2
16:02 8.3 °C -0.7 °C 1005 hPa WSW 19.3 km/h 33.8 km/h 53 % 0 mm 179 W/m2
16:07 8.3 °C -0.5 °C 1005 hPa WSW 19.3 km/h 33.8 km/h 54 % 0 mm 234 W/m2
16:12 8.4 °C -0.4 °C 1005.3 hPa WSW 19.3 km/h 35.4 km/h 54 % 0 mm 220 W/m2
16:17 8.3 °C -0.7 °C 1005.3 hPa WSW 22.5 km/h 40.2 km/h 53 % 0 mm 193 W/m2
16:27 8.1 °C -0.7 °C 1005.3 hPa WSW 20.9 km/h 37 km/h 54 % 0 mm 220 W/m2
16:32 8.1 °C -0.2 °C 1005 hPa WSW 19.3 km/h 35.4 km/h 56 % 0 mm 113 W/m2
16:37 7.9 °C -0.3 °C 1005.3 hPa WSW 19.3 km/h 32.2 km/h 56 % 0 mm 100 W/m2
16:42 7.8 °C -0.2 °C 1005.3 hPa WSW 19.3 km/h 35.4 km/h 57 % 0 mm 98 W/m2
16:47 7.6 °C 0.1 °C 1005.3 hPa SW 19.3 km/h 35.4 km/h 59 % 0 mm 88 W/m2
16:52 7.4 °C -0.3 °C 1005.3 hPa SW 20.9 km/h 35.4 km/h 58 % 0 mm 114 W/m2
16:57 7.3 °C -0.4 °C 1005.3 hPa SW 20.9 km/h 33.8 km/h 58 % 0 mm 111 W/m2
17:02 7.2 °C -0.1 °C 1005.3 hPa SW 17.7 km/h 29 km/h 60 % 0 mm 77 W/m2
17:07 7.2 °C 0.2 °C 1005.3 hPa SW 14.5 km/h 29 km/h 61 % 0 mm 81 W/m2
17:12 7.1 °C 0.1 °C 1005.6 hPa SW 16.1 km/h 33.8 km/h 61 % 0 mm 83 W/m2
17:17 7 °C 0.2 °C 1005.6 hPa SW 17.7 km/h 33.8 km/h 62 % 0 mm 83 W/m2
17:22 6.9 °C 0.8 °C 1005.6 hPa WSW 17.7 km/h 33.8 km/h 65 % 0 mm 69 W/m2
17:27 6.5 °C 1.6 °C 1006 hPa WSW 22.5 km/h 37 km/h 71 % 0 mm 60 W/m2
17:33 6 °C 2.1 °C 1005.6 hPa WSW 20.9 km/h 37 km/h 76 % 0 mm 53 W/m2
17:38 5.7 °C 2 °C 1005.6 hPa WSW 12.9 km/h 25.7 km/h 77 % 0 mm 44 W/m2
17:43 5.6 °C 1.9 °C 1005.6 hPa WSW 11.3 km/h 19.3 km/h 77 % 0 mm 35 W/m2
17:48 5.5 °C 1.8 °C 1005.6 hPa WSW 11.3 km/h 20.9 km/h 77 % 0 mm 32 W/m2
17:53 5.4 °C 1.7 °C 1006 hPa WSW 11.3 km/h 20.9 km/h 77 % 0 mm 19 W/m2
17:58 5.4 °C 1.5 °C 1006 hPa WSW 9.7 km/h 20.9 km/h 76 % 0 mm 14 W/m2
18:03 5.3 °C 1.4 °C 1006 hPa WSW 9.7 km/h 17.7 km/h 76 % 0 mm 11 W/m2
18:08 5.3 °C 1.4 °C 1006 hPa WSW 9.7 km/h 17.7 km/h 76 % 0 mm 9 W/m2
18:13 5.3 °C 1.4 °C 1006 hPa WSW 9.7 km/h 16.1 km/h 76 % 0 mm 7 W/m2
18:18 5.2 °C 1.3 °C 1006 hPa SW 11.3 km/h 16.1 km/h 76 % 0 mm 0 W/m2
18:23 5.2 °C 1.3 °C 1006 hPa SW 9.7 km/h 16.1 km/h 76 % 0 mm 0 W/m2
18:28 5.2 °C 1.3 °C 1006 hPa SW 8 km/h 14.5 km/h 76 % 0 mm 0 W/m2
18:33 5.2 °C 1.3 °C 1006 hPa SW 8 km/h 14.5 km/h 76 % 0 mm 0 W/m2
18:38 5.2 °C 1.5 °C 1006 hPa SW 8 km/h 14.5 km/h 77 % 0 mm 0 W/m2
18:43 5.2 °C 1.5 °C 1006 hPa SW 8 km/h 14.5 km/h 77 % 0 mm 0 W/m2
18:48 5.2 °C 1.5 °C 1006 hPa SW 8 km/h 14.5 km/h 77 % 0 mm 0 W/m2
18:53 5.2 °C 1.5 °C 1006 hPa SSW 8 km/h 12.9 km/h 77 % 0 mm 0 W/m2
18:58 5.2 °C 1.3 °C 1006 hPa SSW 8 km/h 14.5 km/h 76 % 0 mm 0 W/m2
19:03 5.2 °C 1.3 °C 1006 hPa SSW 6.4 km/h 14.5 km/h 76 % 0 mm 0 W/m2
19:08 5.2 °C 1.3 °C 1005.6 hPa SSW 6.4 km/h 19.3 km/h 76 % 0 mm 0 W/m2
19:13 5.3 °C 1.4 °C 1005.6 hPa SSW 8 km/h 19.3 km/h 76 % 0 mm 0 W/m2
19:18 5.3 °C 1.6 °C 1006 hPa SW 6.4 km/h 14.5 km/h 77 % 0 mm 0 W/m2
19:23 5.3 °C 1.6 °C 1006 hPa SSW 8 km/h 17.7 km/h 77 % 0 mm 0 W/m2
19:28 5.2 °C 1.5 °C 1006 hPa SSW 6.4 km/h 17.7 km/h 77 % 0 mm 0 W/m2
19:33 5.2 °C 1.5 °C 1006 hPa SW 4.8 km/h 14.5 km/h 77 % 0 mm 0 W/m2
19:38 5.2 °C 1.5 °C 1006 hPa SW 4.8 km/h 12.9 km/h 77 % 0 mm 0 W/m2
19:43 5.2 °C 1.7 °C 1006 hPa South 3.2 km/h 9.7 km/h 78 % 0 mm 0 W/m2
19:48 5.2 °C 1.7 °C 1006 hPa South 4.8 km/h 9.7 km/h 78 % 0 mm 0 W/m2
19:53 5.2 °C 1.7 °C 1006 hPa South 6.4 km/h 14.5 km/h 78 % 0 mm 0 W/m2
19:58 5.2 °C 1.7 °C 1006 hPa South 9.7 km/h 19.3 km/h 78 % 0 mm 0 W/m2
20:03 5.2 °C 1.8 °C 1006 hPa SSW 12.9 km/h 20.9 km/h 79 % 0 mm 0 W/m2
20:08 5.2 °C 1.8 °C 1005.6 hPa SSW 16.1 km/h 30.6 km/h 79 % 0 mm 0 W/m2
20:13 5.2 °C 1.8 °C 1005.6 hPa SSW 17.7 km/h 35.4 km/h 79 % 0 mm 0 W/m2
20:18 5.1 °C 1.9 °C 1006 hPa SSW 17.7 km/h 35.4 km/h 80 % 0 mm 0 W/m2
20:23 5.1 °C 1.9 °C 1005.6 hPa SSW 17.7 km/h 29 km/h 80 % 0 mm 0 W/m2
20:28 5.1 °C 1.9 °C 1005.6 hPa SW 16.1 km/h 22.5 km/h 80 % 0 mm 0 W/m2
20:33 5 °C 1.8 °C 1005.6 hPa SW 16.1 km/h 30.6 km/h 80 % 0 mm 0 W/m2
20:38 5 °C 2 °C 1005.6 hPa SSW 17.7 km/h 30.6 km/h 81 % 0 mm 0 W/m2
20:43 4.9 °C 1.9 °C 1005.6 hPa SSW 12.9 km/h 22.5 km/h 81 % 0 mm 0 W/m2
20:48 4.9 °C 1.9 °C 1005.6 hPa SSW 9.7 km/h 17.7 km/h 81 % 0 mm 0 W/m2
20:53 4.9 °C 1.9 °C 1005.6 hPa SW 6.4 km/h 17.7 km/h 81 % 0 mm 0 W/m2
20:58 4.9 °C 2.1 °C 1005.6 hPa South 4.8 km/h 14.5 km/h 82 % 0 mm 0 W/m2
21:03 4.9 °C 2.1 °C 1005.3 hPa SE 4.8 km/h 14.5 km/h 82 % 0 mm 0 W/m2
21:08 5 °C 2.2 °C 1005.6 hPa SE 4.8 km/h 14.5 km/h 82 % 0 mm 0 W/m2
21:13 5.1 °C 2.3 °C 1005.6 hPa SE 3.2 km/h 11.3 km/h 82 % 0 mm 0 W/m2
21:18 5.1 °C 2.3 °C 1005.6 hPa SE 3.2 km/h 11.3 km/h 82 % 0 mm 0 W/m2
21:23 5.1 °C 2.3 °C 1005.3 hPa SSE 4.8 km/h 12.9 km/h 82 % 0 mm 0 W/m2
21:28 5.1 °C 2.3 °C 1005.3 hPa South 8 km/h 16.1 km/h 82 % 0 mm 0 W/m2
21:33 5.1 °C 2.3 °C 1005.3 hPa SW 9.7 km/h 16.1 km/h 82 % 0 mm 0 W/m2
21:38 5.2 °C 2.4 °C 1005 hPa SW 11.3 km/h 20.9 km/h 82 % 0 mm 0 W/m2
21:43 5.1 °C 2.3 °C 1005 hPa SW 12.9 km/h 20.9 km/h 82 % 0 mm 0 W/m2
21:48 5.2 °C 2.4 °C 1005 hPa SW 11.3 km/h 17.7 km/h 82 % 0 mm 0 W/m2
21:53 5.1 °C 2.4 °C 1005.3 hPa SSW 9.7 km/h 17.7 km/h 83 % 0 mm 0 W/m2
21:58 5.1 °C 2.4 °C 1005 hPa South 8 km/h 17.7 km/h 83 % 0 mm 0 W/m2
22:03 5.1 °C 2.4 °C 1005 hPa South 6.4 km/h 20.9 km/h 83 % 0 mm 0 W/m2
22:08 5.1 °C 2.6 °C 1005.3 hPa SSW 11.3 km/h 30.6 km/h 84 % 0 mm 0 W/m2
22:13 5.1 °C 2.6 °C 1005.3 hPa SSW 16.1 km/h 30.6 km/h 84 % 0 mm 0 W/m2
22:23 5.1 °C 2.6 °C 1005.3 hPa SW 14.5 km/h 20.9 km/h 84 % 0 mm 0 W/m2
22:28 5.1 °C 2.6 °C 1005.3 hPa SSW 14.5 km/h 25.7 km/h 84 % 0 mm 0 W/m2
22:33 5.1 °C 2.6 °C 1005.3 hPa SSW 16.1 km/h 25.7 km/h 84 % 0 mm 0 W/m2
22:38 5.1 °C 2.6 °C 1005.3 hPa SSW 16.1 km/h 30.6 km/h 84 % 0 mm 0 W/m2
22:48 5.1 °C 2.8 °C 1005.3 hPa SSW 17.7 km/h 29 km/h 85 % 0 mm 0 W/m2
22:53 5.1 °C 2.6 °C 1005.3 hPa SSW 16.1 km/h 29 km/h 84 % 0 mm 0 W/m2
22:58 5.1 °C 2.8 °C 1005.3 hPa SSW 16.1 km/h 29 km/h 85 % 0 mm 0 W/m2
23:04 5.1 °C 2.8 °C 1005.3 hPa SSW 12.9 km/h 20.9 km/h 85 % 0 mm 0 W/m2
23:09 5 °C 2.7 °C 1005.3 hPa SSW 12.9 km/h 20.9 km/h 85 % 0 mm 0 W/m2
23:14 5 °C 2.8 °C 1005.3 hPa SSW 12.9 km/h 20.9 km/h 86 % 0 mm 0 W/m2
23:19 5 °C 2.8 °C 1005.3 hPa SSW 12.9 km/h 19.3 km/h 86 % 0 mm 0 W/m2
23:24 4.9 °C 2.8 °C 1005.3 hPa SSW 12.9 km/h 19.3 km/h 86 % 0 mm 0 W/m2
23:29 4.9 °C 2.9 °C 1005.3 hPa SSW 12.9 km/h 25.7 km/h 87 % 0 mm 0 W/m2
23:34 4.8 °C 2.8 °C 1005.3 hPa SSW 14.5 km/h 25.7 km/h 87 % 0 mm 0 W/m2
23:39 4.8 °C 3 °C 1005.3 hPa SSW 11.3 km/h 22.5 km/h 88 % 0 mm 0 W/m2
23:44 4.7 °C 2.9 °C 1005.3 hPa SSW 9.7 km/h 22.5 km/h 88 % 0 mm 0 W/m2
23:49 4.7 °C 3.1 °C 1005.3 hPa South 8 km/h 16.1 km/h 89 % 0 mm 0 W/m2
23:54 4.7 °C 3.1 °C 1005 hPa South 8 km/h 14.5 km/h 89 % 0.25 mm 0 W/m2
23:59 4.6 °C 3.1 °C 1005 hPa SSE 6.4 km/h 12.9 km/h 90 % 0.25 mm 0 W/m2
Delerius-Weather
Compliments of Weather Underground - 2.25 mb

Data updates at regular intervals.